sensor_id;sensor_type;location;lat;lon;timestamp;pressure;altitude;pressure_sealevel;temperature;humidity
23677;BME280;31493;49.058;12.190;2023-02-18T00:01:29;96699.00;;;9.42;100.00
23677;BME280;31493;49.058;12.190;2023-02-18T00:03:58;96692.66;;;9.32;100.00
23677;BME280;31493;49.058;12.190;2023-02-18T00:06:27;96697.44;;;9.40;100.00
23677;BME280;31493;49.058;12.190;2023-02-18T00:08:54;96691.63;;;9.52;100.00
23677;BME280;31493;49.058;12.190;2023-02-18T00:11:23;96698.88;;;9.46;100.00
23677;BME280;31493;49.058;12.190;2023-02-18T00:13:51;96699.66;;;9.30;100.00
23677;BME280;31493;49.058;12.190;2023-02-18T00:16:19;96694.34;;;9.33;100.00
23677;BME280;31493;49.058;12.190;2023-02-18T00:18:47;96703.31;;;9.26;100.00
23677;BME280;31493;49.058;12.190;2023-02-18T00:21:15;96698.81;;;9.30;100.00
23677;BME280;31493;49.058;12.190;2023-02-18T00:23:42;96695.66;;;9.25;100.00
23677;BME280;31493;49.058;12.190;2023-02-18T00:26:11;96703.91;;;9.31;100.00
23677;BME280;31493;49.058;12.190;2023-02-18T00:28:40;96691.06;;;9.30;100.00
23677;BME280;31493;49.058;12.190;2023-02-18T00:31:09;96698.31;;;9.23;100.00
23677;BME280;31493;49.058;12.190;2023-02-18T00:33:36;96685.53;;;9.20;100.00
23677;BME280;31493;49.058;12.190;2023-02-18T00:36:05;96700.22;;;9.20;100.00
23677;BME280;31493;49.058;12.190;2023-02-18T00:38:35;96705.31;;;9.21;100.00
23677;BME280;31493;49.058;12.190;2023-02-18T00:41:03;96694.41;;;9.16;100.00
23677;BME280;31493;49.058;12.190;2023-02-18T00:43:30;96705.25;;;9.23;100.00
23677;BME280;31493;49.058;12.190;2023-02-18T00:45:57;96698.03;;;9.12;100.00
23677;BME280;31493;49.058;12.190;2023-02-18T00:48:24;96704.34;;;9.06;100.00
23677;BME280;31493;49.058;12.190;2023-02-18T00:50:51;96702.91;;;9.01;100.00
23677;BME280;31493;49.058;12.190;2023-02-18T00:53:18;96701.78;;;9.06;100.00
23677;BME280;31493;49.058;12.190;2023-02-18T00:55:48;96701.69;;;9.08;100.00
23677;BME280;31493;49.058;12.190;2023-02-18T00:58:15;96698.13;;;9.10;100.00
23677;BME280;31493;49.058;12.190;2023-02-18T01:00:42;96704.63;;;9.18;100.00
23677;BME280;31493;49.058;12.190;2023-02-18T01:03:10;96697.81;;;9.17;100.00
23677;BME280;31493;49.058;12.190;2023-02-18T01:05:37;96696.25;;;9.30;100.00
23677;BME280;31493;49.058;12.190;2023-02-18T01:08:07;96706.38;;;9.17;100.00
23677;BME280;31493;49.058;12.190;2023-02-18T01:10:34;96692.41;;;9.21;100.00
23677;BME280;31493;49.058;12.190;2023-02-18T01:13:03;96697.22;;;9.11;100.00
23677;BME280;31493;49.058;12.190;2023-02-18T01:15:31;96703.91;;;9.15;100.00
23677;BME280;31493;49.058;12.190;2023-02-18T01:17:58;96696.38;;;9.11;100.00
23677;BME280;31493;49.058;12.190;2023-02-18T01:20:25;96704.63;;;9.18;100.00
23677;BME280;31493;49.058;12.190;2023-02-18T01:22:52;96698.47;;;9.20;100.00
23677;BME280;31493;49.058;12.190;2023-02-18T01:25:19;96701.13;;;9.19;100.00
23677;BME280;31493;49.058;12.190;2023-02-18T01:27:46;96705.44;;;9.02;100.00
23677;BME280;31493;49.058;12.190;2023-02-18T01:30:16;96697.72;;;9.18;100.00
23677;BME280;31493;49.058;12.190;2023-02-18T01:32:43;96702.06;;;9.18;100.00
23677;BME280;31493;49.058;12.190;2023-02-18T01:35:12;96692.56;;;9.18;100.00
23677;BME280;31493;49.058;12.190;2023-02-18T01:37:40;96697.13;;;9.13;100.00
23677;BME280;31493;49.058;12.190;2023-02-18T01:40:09;96704.31;;;9.24;100.00
23677;BME280;31493;49.058;12.190;2023-02-18T01:42:37;96695.50;;;9.28;100.00
23677;BME280;31493;49.058;12.190;2023-02-18T01:48:27;96689.41;;;9.29;100.00
23677;BME280;31493;49.058;12.190;2023-02-18T01:50:59;96691.81;;;9.16;100.00
23677;BME280;31493;49.058;12.190;2023-02-18T01:53:30;96681.53;;;9.14;100.00
23677;BME280;31493;49.058;12.190;2023-02-18T01:55:59;96683.06;;;9.19;100.00
23677;BME280;31493;49.058;12.190;2023-02-18T01:58:28;96678.31;;;9.27;100.00
23677;BME280;31493;49.058;12.190;2023-02-18T02:00:55;96675.16;;;9.22;100.00
23677;BME280;31493;49.058;12.190;2023-02-18T02:03:22;96682.47;;;9.13;100.00
23677;BME280;31493;49.058;12.190;2023-02-18T02:05:51;96683.88;;;9.19;100.00
23677;BME280;31493;49.058;12.190;2023-02-18T02:08:18;96682.63;;;9.10;100.00
23677;BME280;31493;49.058;12.190;2023-02-18T02:13:43;96673.69;;;9.00;100.00
23677;BME280;31493;49.058;12.190;2023-02-18T02:16:21;96674.47;;;9.02;100.00
23677;BME280;31493;49.058;12.190;2023-02-18T02:18:57;96675.00;;;8.92;100.00
23677;BME280;31493;49.058;12.190;2023-02-18T02:22:02;96671.41;;;8.94;100.00
23677;BME280;31493;49.058;12.190;2023-02-18T02:24:53;96668.00;;;8.94;100.00
23677;BME280;31493;49.058;12.190;2023-02-18T02:27:25;96673.91;;;8.96;100.00
23677;BME280;31493;49.058;12.190;2023-02-18T02:33:23;96663.66;;;8.94;100.00
23677;BME280;31493;49.058;12.190;2023-02-18T02:36:03;96678.34;;;8.94;100.00
23677;BME280;31493;49.058;12.190;2023-02-18T02:38:38;96673.09;;;8.95;100.00
23677;BME280;31493;49.058;12.190;2023-02-18T02:41:19;96676.50;;;8.96;100.00
23677;BME280;31493;49.058;12.190;2023-02-18T02:43:52;96659.66;;;8.88;100.00
23677;BME280;31493;49.058;12.190;2023-02-18T02:46:27;96650.28;;;9.03;100.00
23677;BME280;31493;49.058;12.190;2023-02-18T02:49:00;96656.00;;;8.93;100.00
23677;BME280;31493;49.058;12.190;2023-02-18T02:51:33;96654.94;;;8.97;100.00
23677;BME280;31493;49.058;12.190;2023-02-18T02:54:13;96644.69;;;8.95;100.00
23677;BME280;31493;49.058;12.190;2023-02-18T02:56:41;96647.56;;;8.89;100.00
23677;BME280;31493;49.058;12.190;2023-02-18T02:59:12;96647.34;;;8.94;100.00
23677;BME280;31493;49.058;12.190;2023-02-18T03:01:51;96649.84;;;8.95;100.00
23677;BME280;31493;49.058;12.190;2023-02-18T03:10:38;96648.81;;;8.82;100.00
23677;BME280;31493;49.058;12.190;2023-02-18T03:13:15;96645.63;;;8.77;100.00
23677;BME280;31493;49.058;12.190;2023-02-18T03:15:49;96652.03;;;8.70;100.00
23677;BME280;31493;49.058;12.190;2023-02-18T03:18:22;96650.97;;;8.74;100.00
23677;BME280;31493;49.058;12.190;2023-02-18T03:20:54;96648.38;;;8.74;100.00
23677;BME280;31493;49.058;12.190;2023-02-18T03:23:26;96637.31;;;8.72;100.00
23677;BME280;31493;49.058;12.190;2023-02-18T03:25:58;96627.25;;;8.83;100.00
23677;BME280;31493;49.058;12.190;2023-02-18T03:28:27;96650.25;;;8.87;100.00
23677;BME280;31493;49.058;12.190;2023-02-18T03:31:00;96643.94;;;8.93;100.00
23677;BME280;31493;49.058;12.190;2023-02-18T03:33:32;96647.91;;;8.83;100.00
23677;BME280;31493;49.058;12.190;2023-02-18T03:36:02;96641.06;;;8.82;100.00
23677;BME280;31493;49.058;12.190;2023-02-18T03:38:33;96634.09;;;8.84;100.00
23677;BME280;31493;49.058;12.190;2023-02-18T03:41:04;96638.72;;;8.77;100.00
23677;BME280;31493;49.058;12.190;2023-02-18T03:43:31;96636.03;;;8.96;100.00
23677;BME280;31493;49.058;12.190;2023-02-18T03:45:58;96630.19;;;8.93;100.00
23677;BME280;31493;49.058;12.190;2023-02-18T03:48:25;96622.25;;;8.96;100.00
23677;BME280;31493;49.058;12.190;2023-02-18T03:50:52;96633.56;;;8.77;100.00
23677;BME280;31493;49.058;12.190;2023-02-18T03:53:19;96631.84;;;8.78;100.00
23677;BME280;31493;49.058;12.190;2023-02-18T03:55:46;96634.94;;;9.00;100.00
23677;BME280;31493;49.058;12.190;2023-02-18T03:58:14;96642.41;;;8.89;100.00
23677;BME280;31493;49.058;12.190;2023-02-18T04:00:41;96639.09;;;8.87;100.00
23677;BME280;31493;49.058;12.190;2023-02-18T04:03:08;96638.03;;;9.07;100.00
23677;BME280;31493;49.058;12.190;2023-02-18T04:05:36;96635.03;;;9.14;100.00
23677;BME280;31493;49.058;12.190;2023-02-18T04:08:03;96642.38;;;9.06;100.00
23677;BME280;31493;49.058;12.190;2023-02-18T04:10:30;96638.88;;;9.07;100.00
23677;BME280;31493;49.058;12.190;2023-02-18T04:12:57;96658.09;;;9.02;100.00
23677;BME280;31493;49.058;12.190;2023-02-18T04:15:26;96639.31;;;9.15;100.00
23677;BME280;31493;49.058;12.190;2023-02-18T04:17:53;96641.41;;;9.25;100.00
23677;BME280;31493;49.058;12.190;2023-02-18T04:20:20;96649.66;;;9.31;100.00
23677;BME280;31493;49.058;12.190;2023-02-18T04:22:47;96659.16;;;9.31;100.00
23677;BME280;31493;49.058;12.190;2023-02-18T04:25:14;96652.31;;;9.30;100.00
23677;BME280;31493;49.058;12.190;2023-02-18T04:27:41;96655.66;;;9.32;100.00
23677;BME280;31493;49.058;12.190;2023-02-18T04:30:09;96643.00;;;9.27;100.00
23677;BME280;31493;49.058;12.190;2023-02-18T04:32:38;96663.81;;;9.24;100.00
23677;BME280;31493;49.058;12.190;2023-02-18T04:35:05;96645.03;;;9.21;100.00
23677;BME280;31493;49.058;12.190;2023-02-18T04:37:32;96655.47;;;9.19;100.00
23677;BME280;31493;49.058;12.190;2023-02-18T04:39:59;96655.66;;;9.16;100.00
23677;BME280;31493;49.058;12.190;2023-02-18T04:42:27;96645.97;;;9.20;100.00
23677;BME280;31493;49.058;12.190;2023-02-18T04:44:54;96631.56;;;9.15;100.00
23677;BME280;31493;49.058;12.190;2023-02-18T04:47:20;96647.53;;;9.06;100.00
23677;BME280;31493;49.058;12.190;2023-02-18T04:49:49;96654.13;;;9.12;100.00
23677;BME280;31493;49.058;12.190;2023-02-18T04:52:16;96637.47;;;9.18;100.00
23677;BME280;31493;49.058;12.190;2023-02-18T04:54:43;96650.47;;;9.16;100.00
23677;BME280;31493;49.058;12.190;2023-02-18T04:57:10;96633.38;;;9.13;100.00
23677;BME280;31493;49.058;12.190;2023-02-18T04:59:38;96642.72;;;9.16;100.00
23677;BME280;31493;49.058;12.190;2023-02-18T05:02:05;96640.66;;;9.23;100.00
23677;BME280;31493;49.058;12.190;2023-02-18T05:04:32;96646.56;;;9.25;100.00
23677;BME280;31493;49.058;12.190;2023-02-18T05:07:00;96631.63;;;9.14;100.00
23677;BME280;31493;49.058;12.190;2023-02-18T05:09:27;96630.41;;;9.21;100.00
23677;BME280;31493;49.058;12.190;2023-02-18T05:11:54;96632.81;;;9.24;100.00
23677;BME280;31493;49.058;12.190;2023-02-18T05:14:21;96640.41;;;9.27;100.00
23677;BME280;31493;49.058;12.190;2023-02-18T05:16:48;96641.25;;;9.28;100.00
23677;BME280;31493;49.058;12.190;2023-02-18T05:19:15;96651.63;;;9.26;100.00
23677;BME280;31493;49.058;12.190;2023-02-18T05:21:43;96630.13;;;9.26;100.00
23677;BME280;31493;49.058;12.190;2023-02-18T05:24:11;96639.72;;;9.24;100.00
23677;BME280;31493;49.058;12.190;2023-02-18T05:26:38;96628.72;;;9.20;100.00
23677;BME280;31493;49.058;12.190;2023-02-18T05:29:05;96631.88;;;9.25;100.00
23677;BME280;31493;49.058;12.190;2023-02-18T05:31:32;96650.47;;;9.16;100.00
23677;BME280;31493;49.058;12.190;2023-02-18T05:33:59;96640.75;;;9.21;100.00
23677;BME280;31493;49.058;12.190;2023-02-18T05:36:26;96631.28;;;9.20;100.00
23677;BME280;31493;49.058;12.190;2023-02-18T05:38:53;96629.53;;;9.21;100.00
23677;BME280;31493;49.058;12.190;2023-02-18T05:41:22;96635.56;;;9.21;100.00
23677;BME280;31493;49.058;12.190;2023-02-18T05:43:49;96645.31;;;9.32;100.00
23677;BME280;31493;49.058;12.190;2023-02-18T05:46:30;96638.81;;;9.25;100.00
23677;BME280;31493;49.058;12.190;2023-02-18T05:48:57;96647.72;;;9.19;100.00
23677;BME280;31493;49.058;12.190;2023-02-18T05:51:24;96631.88;;;9.25;100.00
23677;BME280;31493;49.058;12.190;2023-02-18T05:53:51;96637.97;;;9.24;100.00
23677;BME280;31493;49.058;12.190;2023-02-18T05:56:18;96622.38;;;9.26;100.00
23677;BME280;31493;49.058;12.190;2023-02-18T05:58:47;96622.38;;;9.26;100.00
23677;BME280;31493;49.058;12.190;2023-02-18T06:01:14;96630.00;;;9.29;100.00
23677;BME280;31493;49.058;12.190;2023-02-18T06:03:41;96634.38;;;9.27;100.00
23677;BME280;31493;49.058;12.190;2023-02-18T06:06:09;96634.59;;;9.39;100.00
23677;BME280;31493;49.058;12.190;2023-02-18T06:08:36;96630.81;;;9.29;100.00
23677;BME280;31493;49.058;12.190;2023-02-18T06:11:03;96622.06;;;9.32;100.00
23677;BME280;31493;49.058;12.190;2023-02-18T06:13:30;96643.81;;;9.28;100.00
23677;BME280;31493;49.058;12.190;2023-02-18T06:15:59;96635.31;;;9.26;100.00
23677;BME280;31493;49.058;12.190;2023-02-18T06:18:26;96641.47;;;9.23;100.00
23677;BME280;31493;49.058;12.190;2023-02-18T06:20:53;96632.66;;;9.27;100.00
23677;BME280;31493;49.058;12.190;2023-02-18T06:23:20;96637.75;;;9.29;100.00
23677;BME280;31493;49.058;12.190;2023-02-18T06:25:48;96639.50;;;9.28;100.00
23677;BME280;31493;49.058;12.190;2023-02-18T06:28:15;96644.56;;;9.30;100.00
23677;BME280;31493;49.058;12.190;2023-02-18T06:30:43;96640.56;;;9.24;100.00
23677;BME280;31493;49.058;12.190;2023-02-18T06:33:12;96643.22;;;9.23;100.00
23677;BME280;31493;49.058;12.190;2023-02-18T06:35:39;96628.22;;;9.13;100.00
23677;BME280;31493;49.058;12.190;2023-02-18T06:38:06;96634.66;;;9.22;100.00
23677;BME280;31493;49.058;12.190;2023-02-18T06:40:33;96655.38;;;9.21;100.00
23677;BME280;31493;49.058;12.190;2023-02-18T06:43:00;96652.13;;;9.17;100.00
23677;BME280;31493;49.058;12.190;2023-02-18T06:45:27;96651.41;;;9.15;100.00
23677;BME280;31493;49.058;12.190;2023-02-18T06:47:54;96654.88;;;9.14;100.00
23677;BME280;31493;49.058;12.190;2023-02-18T06:50:23;96653.94;;;8.99;100.00
23677;BME280;31493;49.058;12.190;2023-02-18T06:52:50;96644.94;;;8.91;100.00
23677;BME280;31493;49.058;12.190;2023-02-18T06:55:17;96656.53;;;8.99;100.00
23677;BME280;31493;49.058;12.190;2023-02-18T06:57:44;96656.69;;;8.96;100.00
23677;BME280;31493;49.058;12.190;2023-02-18T07:00:11;96645.31;;;8.83;100.00
23677;BME280;31493;49.058;12.190;2023-02-18T07:02:38;96649.97;;;8.76;100.00
23677;BME280;31493;49.058;12.190;2023-02-18T07:05:06;96647.78;;;8.69;100.00
23677;BME280;31493;49.058;12.190;2023-02-18T07:07:34;96649.63;;;8.67;100.00
23677;BME280;31493;49.058;12.190;2023-02-18T07:10:02;96648.09;;;8.63;100.00
23677;BME280;31493;49.058;12.190;2023-02-18T07:12:30;96637.03;;;8.60;100.00
23677;BME280;31493;49.058;12.190;2023-02-18T07:14:57;96646.66;;;8.57;100.00
23677;BME280;31493;49.058;12.190;2023-02-18T07:17:24;96640.22;;;8.48;100.00
23677;BME280;31493;49.058;12.190;2023-02-18T07:19:51;96640.06;;;8.51;100.00
23677;BME280;31493;49.058;12.190;2023-02-18T07:22:18;96633.44;;;8.46;100.00
23677;BME280;31493;49.058;12.190;2023-02-18T07:24:49;96618.75;;;8.48;100.00
23677;BME280;31493;49.058;12.190;2023-02-18T07:27:16;96625.09;;;8.41;100.00
23677;BME280;31493;49.058;12.190;2023-02-18T07:29:43;96620.19;;;8.36;100.00
23677;BME280;31493;49.058;12.190;2023-02-18T07:32:11;96613.13;;;8.40;100.00
23677;BME280;31493;49.058;12.190;2023-02-18T07:34:39;96599.59;;;8.34;100.00
23677;BME280;31493;49.058;12.190;2023-02-18T07:37:06;96603.09;;;8.33;100.00
23677;BME280;31493;49.058;12.190;2023-02-18T07:39:34;96596.44;;;8.29;100.00
23677;BME280;31493;49.058;12.190;2023-02-18T07:42:03;96606.66;;;8.31;100.00
23677;BME280;31493;49.058;12.190;2023-02-18T07:44:30;96592.94;;;8.30;100.00
23677;BME280;31493;49.058;12.190;2023-02-18T07:46:57;96598.00;;;8.32;100.00
23677;BME280;31493;49.058;12.190;2023-02-18T07:49:24;96596.44;;;8.29;100.00
23677;BME280;31493;49.058;12.190;2023-02-18T07:51:52;96601.97;;;8.39;100.00
23677;BME280;31493;49.058;12.190;2023-02-18T07:54:19;96604.00;;;8.32;100.00
23677;BME280;31493;49.058;12.190;2023-02-18T07:56:46;96594.44;;;8.34;100.00
23677;BME280;31493;49.058;12.190;2023-02-18T07:59:14;96594.59;;;8.31;100.00
23677;BME280;31493;49.058;12.190;2023-02-18T08:01:41;96605.75;;;8.32;100.00
23677;BME280;31493;49.058;12.190;2023-02-18T08:04:08;96593.97;;;8.26;100.00
23677;BME280;31493;49.058;12.190;2023-02-18T08:06:39;96598.19;;;8.29;100.00
23677;BME280;31493;49.058;12.190;2023-02-18T08:09:07;96599.66;;;8.33;100.00
23677;BME280;31493;49.058;12.190;2023-02-18T08:11:34;96607.56;;;8.30;100.00
23677;BME280;31493;49.058;12.190;2023-02-18T08:14:01;96605.59;;;8.35;100.00
23677;BME280;31493;49.058;12.190;2023-02-18T08:16:29;96611.72;;;8.32;100.00
23677;BME280;31493;49.058;12.190;2023-02-18T08:18:57;96608.31;;;8.32;100.00
23677;BME280;31493;49.058;12.190;2023-02-18T08:21:24;96615.38;;;8.28;100.00
23677;BME280;31493;49.058;12.190;2023-02-18T08:23:52;96598.22;;;8.27;100.00
23677;BME280;31493;49.058;12.190;2023-02-18T08:26:19;96601.63;;;8.28;100.00
23677;BME280;31493;49.058;12.190;2023-02-18T08:28:47;96613.41;;;8.33;100.00
23677;BME280;31493;49.058;12.190;2023-02-18T08:31:18;96595.28;;;8.35;100.00
23677;BME280;31493;49.058;12.190;2023-02-18T08:33:47;96603.56;;;8.42;100.00
23677;BME280;31493;49.058;12.190;2023-02-18T08:36:14;96604.25;;;8.45;100.00
23677;BME280;31493;49.058;12.190;2023-02-18T08:38:41;96610.84;;;8.51;100.00
23677;BME280;31493;49.058;12.190;2023-02-18T08:41:09;96606.09;;;8.59;100.00
23677;BME280;31493;49.058;12.190;2023-02-18T08:43:36;96588.59;;;8.66;100.00
23677;BME280;31493;49.058;12.190;2023-02-18T08:46:03;96594.41;;;8.69;100.00
23677;BME280;31493;49.058;12.190;2023-02-18T08:48:31;96597.06;;;8.68;100.00
23677;BME280;31493;49.058;12.190;2023-02-18T08:50:59;96575.09;;;8.76;100.00
23677;BME280;31493;49.058;12.190;2023-02-18T08:53:26;96580.25;;;8.76;100.00
23677;BME280;31493;49.058;12.190;2023-02-18T08:55:53;96563.94;;;8.76;100.00
23677;BME280;31493;49.058;12.190;2023-02-18T08:58:20;96568.19;;;8.77;100.00
23677;BME280;31493;49.058;12.190;2023-02-18T09:00:47;96573.84;;;8.83;100.00
23677;BME280;31493;49.058;12.190;2023-02-18T09:03:14;96576.28;;;8.86;100.00
23677;BME280;31493;49.058;12.190;2023-02-18T09:05:42;96556.00;;;8.96;100.00
23677;BME280;31493;49.058;12.190;2023-02-18T09:08:10;96537.47;;;9.20;100.00
23677;BME280;31493;49.058;12.190;2023-02-18T09:10:37;96546.19;;;9.49;100.00
23677;BME280;31493;49.058;12.190;2023-02-18T09:13:04;96547.41;;;9.73;100.00
23677;BME280;31493;49.058;12.190;2023-02-18T09:15:31;96539.50;;;9.90;100.00
23677;BME280;31493;49.058;12.190;2023-02-18T09:17:58;96527.28;;;10.08;100.00
23677;BME280;31493;49.058;12.190;2023-02-18T09:20:26;96534.41;;;10.19;100.00
23677;BME280;31493;49.058;12.190;2023-02-18T09:22:53;96522.47;;;10.16;100.00
23677;BME280;31493;49.058;12.190;2023-02-18T09:25:21;96511.03;;;10.20;100.00
23677;BME280;31493;49.058;12.190;2023-02-18T09:27:48;96527.53;;;10.18;100.00
23677;BME280;31493;49.058;12.190;2023-02-18T09:30:16;96520.25;;;10.10;100.00
23677;BME280;31493;49.058;12.190;2023-02-18T09:32:43;96525.97;;;10.01;100.00
23677;BME280;31493;49.058;12.190;2023-02-18T09:35:10;96518.22;;;10.01;100.00
23677;BME280;31493;49.058;12.190;2023-02-18T09:37:37;96517.19;;;10.04;100.00
23677;BME280;31493;49.058;12.190;2023-02-18T09:40:05;96505.81;;;10.06;100.00
23677;BME280;31493;49.058;12.190;2023-02-18T09:42:34;96510.91;;;10.08;100.00
23677;BME280;31493;49.058;12.190;2023-02-18T09:45:05;96513.88;;;10.16;100.00
23677;BME280;31493;49.058;12.190;2023-02-18T09:47:36;96511.13;;;10.19;100.00
23677;BME280;31493;49.058;12.190;2023-02-18T09:50:06;96498.91;;;10.21;100.00
23677;BME280;31493;49.058;12.190;2023-02-18T09:52:35;96502.47;;;10.34;100.00
23677;BME280;31493;49.058;12.190;2023-02-18T09:55:16;96500.34;;;10.41;100.00
23677;BME280;31493;49.058;12.190;2023-02-18T09:57:46;96497.13;;;10.37;100.00
23677;BME280;31493;49.058;12.190;2023-02-18T10:00:16;96489.44;;;10.36;100.00
23677;BME280;31493;49.058;12.190;2023-02-18T10:02:52;96493.03;;;10.33;100.00
23677;BME280;31493;49.058;12.190;2023-02-18T10:05:22;96503.13;;;10.38;100.00
23677;BME280;31493;49.058;12.190;2023-02-18T10:07:53;96497.19;;;10.36;100.00
23677;BME280;31493;49.058;12.190;2023-02-18T10:10:31;96489.63;;;10.33;100.00
23677;BME280;31493;49.058;12.190;2023-02-18T10:13:03;96511.16;;;10.33;100.00
23677;BME280;31493;49.058;12.190;2023-02-18T10:15:31;96506.25;;;10.29;100.00
23677;BME280;31493;49.058;12.190;2023-02-18T10:17:59;96497.66;;;10.28;100.00
23677;BME280;31493;49.058;12.190;2023-02-18T10:20:29;96503.56;;;10.30;100.00
23677;BME280;31493;49.058;12.190;2023-02-18T10:23:00;96502.84;;;10.28;100.00
23677;BME280;31493;49.058;12.190;2023-02-18T10:25:30;96491.44;;;10.31;100.00
23677;BME280;31493;49.058;12.190;2023-02-18T10:27:58;96481.50;;;10.39;100.00
23677;BME280;31493;49.058;12.190;2023-02-18T10:30:32;96495.00;;;10.44;100.00
23677;BME280;31493;49.058;12.190;2023-02-18T10:33:15;96488.41;;;10.53;100.00
23677;BME280;31493;49.058;12.190;2023-02-18T10:35:46;96494.63;;;10.50;100.00
23677;BME280;31493;49.058;12.190;2023-02-18T10:38:25;96483.34;;;10.51;100.00
23677;BME280;31493;49.058;12.190;2023-02-18T10:41:08;96491.28;;;10.48;100.00
23677;BME280;31493;49.058;12.190;2023-02-18T10:43:46;96482.50;;;10.51;100.00
23677;BME280;31493;49.058;12.190;2023-02-18T10:46:23;96476.19;;;10.55;100.00
23677;BME280;31493;49.058;12.190;2023-02-18T10:49:03;96466.88;;;10.52;100.00
23677;BME280;31493;49.058;12.190;2023-02-18T10:51:36;96461.03;;;10.48;100.00
23677;BME280;31493;49.058;12.190;2023-02-18T10:54:06;96465.94;;;10.53;100.00
23677;BME280;31493;49.058;12.190;2023-02-18T10:56:38;96476.56;;;10.63;100.00
23677;BME280;31493;49.058;12.190;2023-02-18T10:59:11;96466.97;;;10.51;100.00
23677;BME280;31493;49.058;12.190;2023-02-18T11:01:41;96470.41;;;10.51;100.00
23677;BME280;31493;49.058;12.190;2023-02-18T11:04:14;96463.25;;;10.55;100.00
23677;BME280;31493;49.058;12.190;2023-02-18T11:06:44;96448.66;;;10.54;100.00
23677;BME280;31493;49.058;12.190;2023-02-18T11:09:25;96458.28;;;10.52;100.00
23677;BME280;31493;49.058;12.190;2023-02-18T11:11:59;96437.09;;;10.59;100.00
23677;BME280;31493;49.058;12.190;2023-02-18T11:14:41;96422.56;;;10.71;100.00
23677;BME280;31493;49.058;12.190;2023-02-18T11:17:18;96431.97;;;10.72;100.00
23677;BME280;31493;49.058;12.190;2023-02-18T11:19:54;96421.13;;;10.80;100.00
23677;BME280;31493;49.058;12.190;2023-02-18T11:22:24;96428.50;;;10.86;100.00
23677;BME280;31493;49.058;12.190;2023-02-18T11:24:55;96424.41;;;10.96;100.00
23677;BME280;31493;49.058;12.190;2023-02-18T11:27:27;96416.50;;;11.12;100.00
23677;BME280;31493;49.058;12.190;2023-02-18T11:29:59;96409.84;;;11.08;100.00
23677;BME280;31493;49.058;12.190;2023-02-18T11:32:29;96403.44;;;11.13;100.00
23677;BME280;31493;49.058;12.190;2023-02-18T11:35:00;96398.81;;;11.18;100.00
23677;BME280;31493;49.058;12.190;2023-02-18T11:37:31;96408.41;;;11.16;100.00
23677;BME280;31493;49.058;12.190;2023-02-18T11:39:58;96401.78;;;11.12;100.00
23677;BME280;31493;49.058;12.190;2023-02-18T11:42:26;96393.09;;;11.26;100.00
23677;BME280;31493;49.058;12.190;2023-02-18T11:44:55;96382.44;;;11.30;100.00
23677;BME280;31493;49.058;12.190;2023-02-18T11:47:26;96378.38;;;11.26;100.00
23677;BME280;31493;49.058;12.190;2023-02-18T11:50:14;96382.66;;;11.40;100.00
23677;BME280;31493;49.058;12.190;2023-02-18T11:52:43;96375.31;;;11.47;96.13
23677;BME280;31493;49.058;12.190;2023-02-18T11:55:16;96372.50;;;11.37;95.67
23677;BME280;31493;49.058;12.190;2023-02-18T11:57:46;96363.28;;;11.46;95.27
23677;BME280;31493;49.058;12.190;2023-02-18T12:00:20;96364.44;;;11.42;94.68
23677;BME280;31493;49.058;12.190;2023-02-18T12:02:51;96344.13;;;11.48;94.02
23677;BME280;31493;49.058;12.190;2023-02-18T12:05:23;96355.91;;;11.52;92.64
23677;BME280;31493;49.058;12.190;2023-02-18T12:07:55;96352.19;;;11.56;92.29
23677;BME280;31493;49.058;12.190;2023-02-18T12:10:27;96355.63;;;11.57;91.47
23677;BME280;31493;49.058;12.190;2023-02-18T12:13:00;96351.16;;;11.59;90.51
23677;BME280;31493;49.058;12.190;2023-02-18T12:15:38;96350.66;;;11.67;89.83
23677;BME280;31493;49.058;12.190;2023-02-18T12:18:34;96349.72;;;11.68;87.37
23677;BME280;31493;49.058;12.190;2023-02-18T12:21:17;96334.69;;;11.60;89.36
23677;BME280;31493;49.058;12.190;2023-02-18T12:23:56;96333.53;;;11.51;89.32
23677;BME280;31493;49.058;12.190;2023-02-18T12:26:28;96342.53;;;11.71;87.81
23677;BME280;31493;49.058;12.190;2023-02-18T12:29:16;96322.19;;;11.78;85.76
23677;BME280;31493;49.058;12.190;2023-02-18T12:31:55;96310.94;;;11.66;86.44
23677;BME280;31493;49.058;12.190;2023-02-18T12:34:34;96324.59;;;11.68;86.46
23677;BME280;31493;49.058;12.190;2023-02-18T12:37:14;96318.59;;;11.68;86.41
23677;BME280;31493;49.058;12.190;2023-02-18T12:39:59;96310.72;;;11.82;84.48
23677;BME280;31493;49.058;12.190;2023-02-18T12:42:48;96296.69;;;11.72;85.31
23677;BME280;31493;49.058;12.190;2023-02-18T12:45:35;96318.88;;;11.76;84.77
23677;BME280;31493;49.058;12.190;2023-02-18T12:48:28;96308.81;;;11.71;85.14
23677;BME280;31493;49.058;12.190;2023-02-18T12:51:07;96301.16;;;11.57;86.38
23677;BME280;31493;49.058;12.190;2023-02-18T12:54:01;96289.75;;;11.72;85.83
23677;BME280;31493;49.058;12.190;2023-02-18T12:56:55;96326.16;;;11.58;86.71
23677;BME280;31493;49.058;12.190;2023-02-18T13:02:39;96299.19;;;11.73;84.77
23677;BME280;31493;49.058;12.190;2023-02-18T13:05:13;96300.13;;;11.60;85.31
23677;BME280;31493;49.058;12.190;2023-02-18T13:07:56;96322.22;;;11.52;88.21
23677;BME280;31493;49.058;12.190;2023-02-18T13:10:48;96306.44;;;11.68;85.79
23677;BME280;31493;49.058;12.190;2023-02-18T13:13:18;96292.97;;;11.63;85.79
23677;BME280;31493;49.058;12.190;2023-02-18T13:15:48;96312.66;;;11.66;85.74
23677;BME280;31493;49.058;12.190;2023-02-18T13:18:21;96301.47;;;11.65;87.44
23677;BME280;31493;49.058;12.190;2023-02-18T13:20:51;96297.31;;;11.63;86.72
23677;BME280;31493;49.058;12.190;2023-02-18T13:23:24;96300.03;;;11.61;86.94